Main page
METAR-TAF:

METAR-TAF

Airports :

Carcassonne Airport

Carcassonne, France

latitude: 43-13N, longitude: 002-19E, elevation: 130 m

Current weather observation

The report was made 39 minutes ago, at 21:00 UTC
Wind 2 kt from the Southeast
Temperature 15°C
Humidity 94%
Pressure 1015 hPa
Visibility: 5000 m
Few clouds at a height of 3900 ft
Scattered clouds at a height of 18000 ft
Broken clouds at a height of 22000 ft
mist

METAR: LFMK 172100Z AUTO 14002KT 5000 BR FEW039 SCT180 BKN220 15/14 Q1015

Time: 23:39 (21:39 UTC)

Forecast

The report was made 7 hours and 39 minutes ago, at 14:00 UTC
Forecast valid from 17 at 15 UTC to 18 at 15 UTC
Wind 2 kt from variable directions
Visibility 10 km or more
Broken clouds at a height of 2000 ft
Temporary
from 17 at 20 UTC to 18 at 15 UTC
Visibility: 1200 m
Broken clouds at a height of 600 ft
Broken clouds at a height of 2000 ft, Towering cumulus.
rain showers, mist

TAF: LFMK 171400Z 1715/1815 VRB02KT 9999 BKN020 TEMPO 1720/1815 1200 SHRA BR BKN006 BKN020TCU

Weather observations and forecasts of more than 4000 airports (METAR and TAF reports).

The available stations are represented by yellow and red dots on the map.

Hover mouse over dot to see the name of the station.

Then click to see weather observations and forecasts.

To change the map : click on the green buttons with a black cross to zoom in, on the green button with a dash to zoom out, or on the green arrows for adjacent maps.


METAR-TAF: